createdAt,value
2017-03-19T00:02:25.712Z,89.50
2017-03-19T00:07:28.459Z,92.23
2017-03-19T00:08:28.794Z,92.87
2017-03-19T00:09:28.573Z,92.16
2017-03-19T00:14:31.355Z,93.11
2017-03-19T00:15:31.139Z,93.37
2017-03-19T00:16:29.296Z,92.16
2017-03-19T00:22:29.793Z,92.68
2017-03-19T00:26:27.343Z,92.78
2017-03-19T00:27:30.516Z,93.46
2017-03-19T00:30:33.390Z,93.23
2017-03-19T00:31:31.093Z,92.77
2017-03-19T00:34:30.449Z,92.44
2017-03-19T00:36:29.230Z,92.91
2017-03-19T00:41:28.013Z,91.78
2017-03-19T00:44:26.169Z,92.08
2017-03-19T00:45:36.177Z,92.78
2017-03-19T00:46:34.463Z,92.40
2017-03-19T00:49:30.833Z,92.69
2017-03-19T00:53:30.796Z,93.23
2017-03-19T00:55:39.161Z,93.61
2017-03-19T00:59:30.431Z,92.52
2017-03-19T01:02:30.475Z,93.11
2017-03-19T01:09:26.378Z,93.71
2017-03-19T01:15:32.468Z,94.23
2017-03-19T01:21:32.419Z,94.58
2017-03-19T01:22:30.034Z,94.86
2017-03-19T01:23:28.672Z,94.33
2017-03-19T01:25:30.941Z,94.28
2017-03-19T01:26:29.649Z,94.69
2017-03-19T01:29:30.423Z,94.94
2017-03-19T01:30:29.383Z,95.32
2017-03-19T01:31:43.435Z,95.77
2017-03-19T01:35:30.917Z,96.05
2017-03-19T01:36:33.895Z,95.93
2017-03-19T01:37:29.477Z,95.78
2017-03-19T01:38:39.464Z,95.16
2017-03-19T01:39:29.897Z,95.54
2017-03-19T01:40:25.946Z,95.53
2017-03-19T01:43:29.857Z,95.64
2017-03-19T01:45:28.442Z,95.51
2017-03-19T01:46:31.916Z,95.57
2017-03-19T01:47:42.130Z,95.55
2017-03-19T01:48:25.699Z,95.00
2017-03-19T01:49:30.189Z,95.04
2017-03-19T01:50:25.008Z,94.93
2017-03-19T01:51:29.336Z,94.85
2017-03-19T01:52:29.958Z,95.92
2017-03-19T01:53:30.878Z,96.07
2017-03-19T01:54:25.037Z,95.71
2017-03-19T01:57:29.409Z,96.13
2017-03-19T01:58:34.436Z,96.65
2017-03-19T01:59:29.766Z,96.41
2017-03-19T02:01:31.708Z,96.62
2017-03-19T02:04:29.403Z,96.64
2017-03-19T02:05:40.161Z,96.66
2017-03-19T02:06:31.279Z,96.87
2017-03-19T02:10:29.002Z,97.50
2017-03-19T02:12:29.440Z,96.92
2017-03-19T02:13:29.611Z,96.87
2017-03-19T02:14:29.019Z,96.88
2017-03-19T02:15:34.174Z,96.44
2017-03-19T02:21:26.067Z,97.03
2017-03-19T02:22:26.683Z,97.03
2017-03-19T02:24:30.624Z,96.72
2017-03-19T02:25:25.438Z,96.33
2017-03-19T02:31:32.206Z,96.63
2017-03-19T02:32:29.909Z,96.68
2017-03-19T02:33:35.759Z,96.35
2017-03-19T02:34:27.888Z,96.53
2017-03-19T02:35:28.363Z,96.34
2017-03-19T02:42:36.092Z,96.32
2017-03-19T02:49:31.484Z,96.77
2017-03-19T02:50:30.884Z,96.13
2017-03-19T02:51:28.308Z,96.42
2017-03-19T03:00:34.637Z,96.87
2017-03-19T03:01:28.610Z,96.52
2017-03-19T03:02:30.657Z,96.22
2017-03-19T03:06:30.973Z,96.28
2017-03-19T03:07:38.024Z,96.66
2017-03-19T03:08:30.967Z,96.26
2017-03-19T03:09:25.848Z,96.51
2017-03-19T03:10:35.264Z,96.27
2017-03-19T03:28:24.661Z,98.01
2017-03-19T03:29:30.826Z,98.48
2017-03-19T03:32:29.539Z,97.52
2017-03-19T03:40:31.792Z,97.79
2017-03-19T03:41:27.332Z,98.58
2017-03-19T03:55:30.710Z,98.30
2017-03-19T03:56:33.371Z,98.25
2017-03-19T03:57:30.677Z,98.23
2017-03-19T03:58:24.993Z,99.04
2017-03-19T04:00:30.567Z,98.55
2017-03-19T04:01:30.690Z,98.87
2017-03-19T04:05:31.270Z,99.23
2017-03-19T04:06:31.960Z,99.19
2017-03-19T04:12:31.216Z,99.45
2017-03-19T04:14:25.018Z,99.13
2017-03-19T04:22:37.168Z,98.89
2017-03-19T04:27:30.250Z,98.85
2017-03-19T04:28:18.928Z,99.21
2017-03-19T04:32:28.440Z,98.92
2017-03-19T04:33:30.668Z,99.23
2017-03-19T04:34:29.631Z,98.93
2017-03-19T04:35:30.564Z,98.76
2017-03-19T04:36:32.070Z,98.41
2017-03-19T04:38:33.659Z,98.63
2017-03-19T04:41:30.310Z,98.78
2017-03-19T04:42:36.037Z,99.09
2017-03-19T04:45:36.467Z,98.49
2017-03-19T04:46:31.236Z,98.44
2017-03-19T04:47:33.022Z,98.37
2017-03-19T04:48:24.866Z,98.30
2017-03-19T04:55:29.000Z,98.56
2017-03-19T04:56:36.428Z,98.57
2017-03-19T04:57:30.825Z,98.48
2017-03-19T04:59:27.489Z,98.54
2017-03-19T05:00:33.323Z,97.37
2017-03-19T05:02:31.406Z,97.63
2017-03-19T05:03:29.060Z,97.27
2017-03-19T05:04:34.252Z,97.07
2017-03-19T05:05:30.163Z,97.36
2017-03-19T05:06:33.690Z,97.04
2017-03-19T05:07:38.984Z,96.85
2017-03-19T05:08:29.985Z,96.94
2017-03-19T05:09:18.850Z,97.08
2017-03-19T05:18:35.308Z,96.73
2017-03-19T05:24:31.273Z,96.87
2017-03-19T05:25:39.296Z,97.32
2017-03-19T05:28:30.219Z,96.84
2017-03-19T05:29:30.633Z,96.47
2017-03-19T05:30:38.198Z,96.63
2017-03-19T05:31:31.409Z,96.71
2017-03-19T05:33:27.139Z,96.97
2017-03-19T05:37:42.420Z,97.73
2017-03-19T05:38:23.352Z,97.58
2017-03-19T05:40:29.791Z,97.25
2017-03-19T05:41:29.692Z,97.56
2017-03-19T05:44:29.424Z,97.91
2017-03-19T05:46:30.126Z,98.09
2017-03-19T05:47:24.714Z,97.90
2017-03-19T05:48:30.232Z,98.19
2017-03-19T05:49:33.443Z,98.66
2017-03-19T05:50:30.312Z,98.78
2017-03-19T05:51:42.461Z,98.50
2017-03-19T05:53:32.560Z,98.43
2017-03-19T05:54:32.836Z,98.31
2017-03-19T05:57:29.414Z,97.98
2017-03-19T05:59:32.171Z,97.78
2017-03-19T06:03:35.581Z,97.72
2017-03-19T06:06:29.458Z,96.97
2017-03-19T06:11:30.724Z,96.32
2017-03-19T06:12:29.462Z,96.65
2017-03-19T06:13:31.014Z,96.03
2017-03-19T06:17:30.571Z,95.82
2017-03-19T06:18:27.943Z,96.04
2017-03-19T06:19:25.303Z,95.64
2017-03-19T06:20:20.739Z,95.80
2017-03-19T06:21:36.089Z,95.74
2017-03-19T06:22:32.118Z,95.82
2017-03-19T06:27:36.586Z,95.71
2017-03-19T06:28:25.722Z,95.41
2017-03-19T06:29:31.018Z,95.33
2017-03-19T06:30:34.169Z,95.47
2017-03-19T06:31:33.321Z,95.21
2017-03-19T06:32:32.979Z,95.22
2017-03-19T06:40:35.589Z,94.67
2017-03-19T06:41:41.134Z,95.08
2017-03-19T06:42:24.072Z,95.02
2017-03-19T06:43:33.981Z,94.99
2017-03-19T06:44:30.187Z,94.67
2017-03-19T06:45:29.153Z,94.64
2017-03-19T06:46:37.902Z,94.77
2017-03-19T06:51:31.297Z,94.45
2017-03-19T06:52:24.848Z,94.03
2017-03-19T06:53:32.274Z,94.22
2017-03-19T06:54:30.535Z,94.01
2017-03-19T06:55:31.284Z,93.62
2017-03-19T06:56:30.812Z,94.12
2017-03-19T07:08:25.016Z,92.73
2017-03-19T07:09:36.606Z,92.79
2017-03-19T07:11:28.082Z,92.12
2017-03-19T07:12:23.107Z,92.11
2017-03-19T07:14:31.018Z,92.37
2017-03-19T07:15:28.816Z,92.14
2017-03-19T07:16:36.061Z,91.81
2017-03-19T07:25:31.317Z,90.98
2017-03-19T07:26:24.228Z,90.82
2017-03-19T07:27:40.581Z,90.90
2017-03-19T07:32:35.559Z,90.22
2017-03-19T07:33:30.364Z,90.36
2017-03-19T07:34:30.992Z,90.02
2017-03-19T07:36:31.899Z,89.51
2017-03-19T07:37:30.569Z,89.38
2017-03-19T07:40:46.406Z,89.06
2017-03-19T07:43:30.586Z,88.42
2017-03-19T07:44:31.477Z,89.03
2017-03-19T07:54:24.617Z,87.22
2017-03-19T07:56:30.611Z,87.24
2017-03-19T07:57:31.072Z,86.41
2017-03-19T08:04:31.086Z,86.52
2017-03-19T08:05:26.929Z,86.29
2017-03-19T08:07:28.326Z,86.22
2017-03-19T08:08:29.746Z,86.65
2017-03-19T08:14:31.096Z,86.25
2017-03-19T08:15:40.336Z,86.47
2017-03-19T08:25:28.690Z,85.55
2017-03-19T08:26:21.469Z,85.67
2017-03-19T08:27:25.817Z,85.53
2017-03-19T08:28:32.887Z,85.70
2017-03-19T08:29:29.162Z,85.90
2017-03-19T08:30:30.206Z,85.46
2017-03-19T08:33:25.396Z,85.76
2017-03-19T08:34:29.791Z,85.64
2017-03-19T08:35:22.814Z,84.97
2017-03-19T08:36:34.096Z,84.78
2017-03-19T08:38:31.120Z,85.08
2017-03-19T08:39:31.109Z,84.83
2017-03-19T08:40:29.765Z,85.07
2017-03-19T08:42:32.084Z,85.27
2017-03-19T08:48:38.978Z,84.80
2017-03-19T08:49:31.104Z,84.19
2017-03-19T08:50:28.074Z,83.15
2017-03-19T08:51:25.600Z,83.32
2017-03-19T08:52:23.235Z,83.43
2017-03-19T08:54:31.441Z,83.90
2017-03-19T08:55:29.556Z,83.65
2017-03-19T08:56:38.381Z,83.10
2017-03-19T08:57:32.425Z,82.92
2017-03-19T08:58:48.769Z,83.09
2017-03-19T09:06:31.463Z,82.55
2017-03-19T09:07:24.619Z,82.76
2017-03-19T09:10:28.707Z,81.75
2017-03-19T09:11:32.867Z,81.78
2017-03-19T09:12:35.590Z,82.12
2017-03-19T09:13:25.184Z,81.19
2017-03-19T09:15:19.401Z,82.14
2017-03-19T09:18:31.052Z,81.74
2017-03-19T09:19:25.539Z,81.74
2017-03-19T09:20:30.144Z,81.85
2017-03-19T09:21:36.025Z,81.57
2017-03-19T09:22:30.829Z,81.43
2017-03-19T09:25:45.363Z,80.85
2017-03-19T09:26:24.976Z,80.98
2017-03-19T09:28:31.064Z,80.36
2017-03-19T09:30:30.289Z,80.26
2017-03-19T09:34:30.426Z,79.91
2017-03-19T09:36:30.863Z,79.32
2017-03-19T09:37:29.344Z,78.81
2017-03-19T09:38:24.285Z,79.17
2017-03-19T09:42:31.141Z,79.19
2017-03-19T09:43:43.782Z,79.44
2017-03-19T09:44:28.149Z,79.08
2017-03-19T09:46:31.401Z,79.14
2017-03-19T09:47:25.469Z,78.82
2017-03-19T09:48:28.315Z,79.23
2017-03-19T09:49:38.397Z,78.70
2017-03-19T09:50:23.532Z,78.26
2017-03-19T09:53:25.278Z,78.36
2017-03-19T09:54:34.064Z,78.08
2017-03-19T09:55:30.359Z,77.73
2017-03-19T09:56:30.032Z,77.72
2017-03-19T09:57:25.031Z,77.83
2017-03-19T09:58:31.432Z,77.50
2017-03-19T09:59:30.873Z,77.02
2017-03-19T10:02:17.979Z,76.56
2017-03-19T10:03:21.669Z,76.88
2017-03-19T10:04:15.472Z,77.12
2017-03-19T10:05:26.747Z,76.03
2017-03-19T10:06:19.723Z,75.38
2017-03-19T10:09:07.892Z,75.48
2017-03-19T10:09:31.587Z,75.37
2017-03-19T10:10:35.985Z,75.00
2017-03-19T10:11:23.989Z,75.71
2017-03-19T10:12:23.779Z,75.82
2017-03-19T10:15:30.431Z,77.50
2017-03-19T10:17:23.862Z,77.66
2017-03-19T10:18:31.011Z,76.97
2017-03-19T10:19:32.923Z,76.92
2017-03-19T10:20:28.299Z,76.98
2017-03-19T10:21:24.478Z,77.30
2017-03-19T10:22:30.656Z,77.30
2017-03-19T10:23:31.342Z,77.86
2017-03-19T10:24:34.954Z,77.96
2017-03-19T10:25:24.145Z,77.72
2017-03-19T10:26:30.358Z,77.66
2017-03-19T10:27:42.793Z,77.78
2017-03-19T10:28:30.421Z,78.05
2017-03-19T10:29:30.931Z,77.95
2017-03-19T10:33:30.639Z,77.09
2017-03-19T10:35:31.724Z,76.43
2017-03-19T10:36:29.319Z,75.86
2017-03-19T10:37:38.073Z,76.00
2017-03-19T10:38:31.469Z,76.74
2017-03-19T10:39:25.003Z,76.31
2017-03-19T10:40:30.954Z,75.46
2017-03-19T10:41:31.249Z,75.47
2017-03-19T10:42:31.582Z,75.43
2017-03-19T10:43:25.349Z,75.67
2017-03-19T10:50:32.210Z,73.76
2017-03-19T10:52:29.219Z,73.44
2017-03-19T10:53:31.514Z,73.53
2017-03-19T10:54:28.367Z,74.19
2017-03-19T10:55:29.046Z,73.76
2017-03-19T10:57:25.121Z,73.15
2017-03-19T10:58:30.776Z,72.42
2017-03-19T10:59:36.587Z,73.17
2017-03-19T11:02:35.188Z,72.74
2017-03-19T11:04:39.431Z,72.09
2017-03-19T11:05:41.431Z,71.84
2017-03-19T11:06:23.841Z,72.87
2017-03-19T11:08:23.494Z,71.43
2017-03-19T11:09:30.975Z,72.49
2017-03-19T11:10:29.974Z,72.75
2017-03-19T11:12:44.176Z,71.59
2017-03-19T11:13:31.304Z,71.19
2017-03-19T11:14:24.101Z,70.28
2017-03-19T11:15:25.303Z,70.19
2017-03-19T11:16:34.171Z,70.56
2017-03-19T11:17:33.173Z,71.21
2017-03-19T11:18:41.973Z,71.69
2017-03-19T11:19:23.463Z,72.52
2017-03-19T11:20:36.703Z,73.33
2017-03-19T11:21:27.723Z,73.49
2017-03-19T11:22:28.885Z,74.30
2017-03-19T11:23:43.853Z,74.58
2017-03-19T11:24:35.786Z,74.57
2017-03-19T11:27:30.269Z,75.27
2017-03-19T11:28:28.539Z,75.04
2017-03-19T11:29:29.001Z,74.87
2017-03-19T11:33:29.768Z,75.43
2017-03-19T11:34:30.262Z,75.54
2017-03-19T11:37:23.015Z,75.58
2017-03-19T11:38:30.404Z,75.49
2017-03-19T11:39:34.584Z,75.15
2017-03-19T11:42:31.302Z,74.65
2017-03-19T11:43:30.139Z,74.81
2017-03-19T11:44:39.629Z,74.53
2017-03-19T11:45:41.722Z,74.76
2017-03-19T11:46:30.737Z,75.06
2017-03-19T11:47:40.150Z,75.26
2017-03-19T11:48:31.110Z,75.18
2017-03-19T11:49:31.359Z,75.53
2017-03-19T11:50:42.580Z,74.90
2017-03-19T11:51:31.720Z,75.08
2017-03-19T11:52:30.869Z,74.85
2017-03-19T11:54:30.249Z,75.48
2017-03-19T11:55:23.535Z,75.49
2017-03-19T11:56:39.207Z,75.51
2017-03-19T11:58:30.921Z,75.82
2017-03-19T11:59:35.977Z,75.85
2017-03-19T12:00:23.417Z,75.60
2017-03-19T12:01:44.520Z,75.51
2017-03-19T12:02:29.650Z,76.01
2017-03-19T12:03:34.074Z,75.90
2017-03-19T12:06:30.980Z,75.25
2017-03-19T12:07:38.986Z,74.89
2017-03-19T12:08:28.344Z,74.36
2017-03-19T12:09:35.248Z,74.08
2017-03-19T12:10:34.961Z,73.41
2017-03-19T12:11:24.157Z,73.57
2017-03-19T12:13:25.605Z,72.43
2017-03-19T12:14:35.259Z,72.47
2017-03-19T12:15:24.955Z,72.44
2017-03-19T12:16:31.234Z,73.05
2017-03-19T12:17:21.451Z,72.98
2017-03-19T12:18:18.490Z,72.75
2017-03-19T12:19:33.261Z,73.41
2017-03-19T12:20:29.597Z,73.62
2017-03-19T12:21:23.167Z,73.12
2017-03-19T12:22:25.256Z,73.00
2017-03-19T12:23:34.442Z,72.69
2017-03-19T12:24:23.986Z,72.56
2017-03-19T12:25:24.707Z,72.54
2017-03-19T12:26:29.052Z,72.93
2017-03-19T12:27:30.120Z,72.86
2017-03-19T12:28:40.253Z,72.92
2017-03-19T12:29:35.169Z,72.56
2017-03-19T12:30:33.594Z,72.54
2017-03-19T12:31:46.018Z,72.69
2017-03-19T12:32:26.942Z,72.27
2017-03-19T12:33:41.297Z,72.06
2017-03-19T12:34:40.076Z,71.74
2017-03-19T12:35:35.308Z,72.42
2017-03-19T12:37:40.326Z,72.82
2017-03-19T12:38:30.635Z,72.86
2017-03-19T12:39:43.298Z,72.75
2017-03-19T12:40:38.831Z,72.56
2017-03-19T12:43:35.318Z,71.89
2017-03-19T12:44:39.312Z,71.62
2017-03-19T12:45:42.778Z,70.68
2017-03-19T12:46:41.318Z,70.15
2017-03-19T12:47:50.793Z,70.47
2017-03-19T12:51:46.319Z,71.41
2017-03-19T12:53:37.580Z,72.02
2017-03-19T12:54:23.464Z,72.21
2017-03-19T12:56:36.133Z,72.40
2017-03-19T12:57:34.090Z,72.32
2017-03-19T12:58:40.714Z,72.90
2017-03-19T12:59:35.614Z,72.59
2017-03-19T13:00:30.337Z,72.07
2017-03-19T13:01:47.319Z,72.21
2017-03-19T13:02:29.141Z,72.40
2017-03-19T13:03:30.566Z,72.36
2017-03-19T13:04:35.324Z,72.62
2017-03-19T13:05:30.363Z,73.03
2017-03-19T13:07:31.570Z,73.42
2017-03-19T13:09:31.236Z,73.16
2017-03-19T13:10:31.293Z,72.13
2017-03-19T13:11:30.687Z,72.41
2017-03-19T13:12:30.407Z,73.03
2017-03-19T13:13:35.216Z,72.61
2017-03-19T13:17:35.273Z,72.76
2017-03-19T13:18:31.189Z,73.15
2017-03-19T13:20:35.516Z,73.37
2017-03-19T13:21:52.683Z,73.44
2017-03-19T13:22:36.814Z,73.36
2017-03-19T13:23:21.919Z,73.32
2017-03-19T13:25:29.638Z,72.42
2017-03-19T13:26:25.529Z,72.27
2017-03-19T13:26:31.137Z,72.94
2017-03-19T13:29:30.436Z,70.64
2017-03-19T13:32:41.326Z,70.05
2017-03-19T13:33:31.474Z,69.75
2017-03-19T13:34:36.478Z,69.40
2017-03-19T13:35:35.578Z,69.65
2017-03-19T13:37:31.410Z,69.66
2017-03-19T13:38:30.448Z,69.60
2017-03-19T13:39:49.845Z,70.08
2017-03-19T13:40:25.896Z,69.91
2017-03-19T13:41:29.103Z,69.75
2017-03-19T13:42:38.369Z,69.91
2017-03-19T13:43:33.566Z,70.06
2017-03-19T13:44:25.957Z,70.10
2017-03-19T13:45:34.797Z,70.07
2017-03-19T13:46:35.404Z,70.26
2017-03-19T13:48:43.858Z,70.52
2017-03-19T13:49:31.257Z,70.52
2017-03-19T13:50:30.310Z,71.06
2017-03-19T13:51:43.057Z,70.95
2017-03-19T13:52:30.307Z,71.60
2017-03-19T13:53:25.401Z,71.35
2017-03-19T13:56:42.235Z,71.76
2017-03-19T13:57:39.324Z,71.74
2017-03-19T13:58:31.217Z,71.41
2017-03-19T13:59:30.609Z,71.36
2017-03-19T14:01:33.799Z,71.16
2017-03-19T14:02:30.532Z,71.43
2017-03-19T14:03:35.431Z,71.61
2017-03-19T14:04:28.780Z,72.21
2017-03-19T14:06:31.995Z,71.97
2017-03-19T14:07:35.896Z,71.99
2017-03-19T14:08:30.356Z,72.54
2017-03-19T14:09:37.200Z,72.56
2017-03-19T14:10:46.706Z,72.17
2017-03-19T14:13:30.814Z,70.43
2017-03-19T14:14:29.196Z,70.21
2017-03-19T14:15:31.273Z,69.99
2017-03-19T14:17:25.985Z,70.10
2017-03-19T14:19:30.437Z,70.02
2017-03-19T14:20:29.918Z,70.18
2017-03-19T14:21:30.458Z,69.56
2017-03-19T14:22:20.159Z,69.67
2017-03-19T14:23:31.002Z,69.24
2017-03-19T14:24:30.254Z,68.84
2017-03-19T14:27:47.167Z,68.63
2017-03-19T14:28:42.492Z,68.71
2017-03-19T14:29:30.562Z,69.03
2017-03-19T14:32:36.084Z,68.73
2017-03-19T14:33:30.518Z,68.62
2017-03-19T14:34:25.102Z,68.71
2017-03-19T14:35:23.510Z,68.83
2017-03-19T14:37:32.001Z,69.13
2017-03-19T14:38:29.858Z,69.24
2017-03-19T14:40:34.173Z,68.77
2017-03-19T14:41:30.479Z,68.83
2017-03-19T14:42:32.560Z,68.77
2017-03-19T14:43:29.758Z,68.37
2017-03-19T14:44:34.442Z,68.14
2017-03-19T14:46:24.514Z,67.96
2017-03-19T14:47:30.982Z,67.98
2017-03-19T14:49:31.618Z,68.66
2017-03-19T14:51:31.105Z,68.70
2017-03-19T14:55:17.442Z,69.33
2017-03-19T14:56:34.515Z,68.65
2017-03-19T14:57:28.622Z,68.37
2017-03-19T14:58:25.776Z,68.40
2017-03-19T15:01:38.431Z,68.78
2017-03-19T15:02:42.474Z,68.71
2017-03-19T15:06:41.837Z,69.44
2017-03-19T15:07:33.196Z,69.10
2017-03-19T15:08:35.606Z,69.20
2017-03-19T15:09:31.345Z,69.05
2017-03-19T15:10:20.038Z,69.51
2017-03-19T15:11:31.085Z,69.71
2017-03-19T15:13:35.536Z,69.75
2017-03-19T15:15:31.303Z,69.82
2017-03-19T15:17:31.475Z,70.49
2017-03-19T15:18:23.291Z,70.25
2017-03-19T15:19:37.256Z,70.30
2017-03-19T15:20:32.415Z,70.26
2017-03-19T15:21:31.933Z,70.11
2017-03-19T15:22:41.107Z,70.51
2017-03-19T15:23:31.269Z,70.42
2017-03-19T15:24:30.852Z,70.59
2017-03-19T15:25:26.049Z,70.82
2017-03-19T15:26:31.603Z,71.03
2017-03-19T15:27:31.217Z,70.93
2017-03-19T15:28:31.016Z,71.07
2017-03-19T15:29:29.446Z,70.69
2017-03-19T15:30:24.006Z,70.76
2017-03-19T15:33:30.772Z,71.20
2017-03-19T15:34:30.911Z,71.34
2017-03-19T15:38:30.776Z,71.19
2017-03-19T15:40:37.988Z,71.70
2017-03-19T15:41:31.529Z,71.68
2017-03-19T15:42:29.259Z,71.77
2017-03-19T15:43:23.999Z,71.99
2017-03-19T15:44:33.611Z,72.24
2017-03-19T15:46:30.289Z,72.30
2017-03-19T15:47:30.567Z,72.35
2017-03-19T15:48:31.909Z,72.41
2017-03-19T15:53:30.662Z,72.75
2017-03-19T15:56:27.778Z,72.67
2017-03-19T15:57:19.470Z,72.65
2017-03-19T15:58:29.099Z,72.93
2017-03-19T15:59:30.157Z,72.82
2017-03-19T16:01:23.409Z,73.05
2017-03-19T16:02:31.599Z,72.99
2017-03-19T16:03:35.781Z,73.26
2017-03-19T16:05:31.316Z,73.24
2017-03-19T16:06:30.952Z,73.44
2017-03-19T16:07:23.098Z,73.63
2017-03-19T16:08:22.570Z,73.51
2017-03-19T16:09:36.342Z,73.79
2017-03-19T16:10:34.604Z,74.02
2017-03-19T16:11:30.979Z,74.18
2017-03-19T16:12:30.851Z,74.24
2017-03-19T16:14:30.986Z,73.86
2017-03-19T16:16:35.880Z,74.00
2017-03-19T16:19:38.302Z,74.35
2017-03-19T16:20:38.409Z,74.45
2017-03-19T16:26:38.350Z,74.20
2017-03-19T16:27:33.358Z,74.27
2017-03-19T16:28:36.352Z,73.96
2017-03-19T16:29:31.341Z,74.34
2017-03-19T16:30:29.370Z,74.50
2017-03-19T16:31:33.613Z,74.36
2017-03-19T16:34:39.165Z,74.50
2017-03-19T16:36:30.402Z,74.64
2017-03-19T16:37:35.571Z,74.61
2017-03-19T16:38:36.578Z,74.65
2017-03-19T16:39:30.586Z,74.57
2017-03-19T16:40:38.582Z,74.57
2017-03-19T16:41:32.638Z,74.89
2017-03-19T16:42:31.009Z,75.06
2017-03-19T16:43:35.481Z,75.02
2017-03-19T16:45:28.913Z,75.05
2017-03-19T16:46:31.804Z,75.14
2017-03-19T16:47:30.651Z,75.25
2017-03-19T16:48:36.405Z,75.55
2017-03-19T16:49:26.041Z,75.53
2017-03-19T16:50:32.058Z,75.66
2017-03-19T16:51:24.223Z,75.80
2017-03-19T16:52:25.920Z,75.75
2017-03-19T16:53:31.709Z,75.95
2017-03-19T16:56:25.663Z,76.22
2017-03-19T16:57:30.327Z,76.23
2017-03-19T16:58:38.667Z,76.34
2017-03-19T16:59:25.882Z,76.51
2017-03-19T17:00:23.875Z,76.30
2017-03-19T17:01:36.656Z,76.44
2017-03-19T17:03:30.581Z,76.47
2017-03-19T17:04:32.295Z,76.44
2017-03-19T17:05:33.647Z,76.15
2017-03-19T17:06:29.987Z,76.07
2017-03-19T17:07:29.067Z,76.36
2017-03-19T17:08:30.359Z,76.21
2017-03-19T17:09:24.317Z,76.05
2017-03-19T17:10:30.698Z,76.06
2017-03-19T17:11:30.974Z,76.12
2017-03-19T17:12:43.717Z,76.06
2017-03-19T17:13:29.661Z,76.16
2017-03-19T17:15:35.734Z,76.13
2017-03-19T17:16:41.458Z,76.14
2017-03-19T17:17:44.129Z,76.20
2017-03-19T17:18:30.238Z,76.04
2017-03-19T17:20:29.094Z,75.93
2017-03-19T17:21:25.718Z,75.94
2017-03-19T17:24:31.474Z,76.03
2017-03-19T17:25:35.578Z,75.60
2017-03-19T17:26:30.204Z,75.45
2017-03-19T17:27:29.282Z,75.49
2017-03-19T17:28:31.900Z,75.50
2017-03-19T17:29:32.266Z,75.53
2017-03-19T17:30:14.429Z,75.67
2017-03-19T17:31:20.623Z,75.70
2017-03-19T17:32:11.545Z,75.55
2017-03-19T17:33:44.674Z,75.56
2017-03-19T17:34:43.572Z,75.30
2017-03-19T17:37:35.719Z,74.25
2017-03-19T17:38:34.714Z,74.36
2017-03-19T17:39:30.259Z,74.09
2017-03-19T17:40:30.582Z,74.11
2017-03-19T17:41:31.570Z,74.17
2017-03-19T17:42:30.888Z,74.09
2017-03-19T17:43:32.124Z,73.88
2017-03-19T17:44:30.214Z,73.97
2017-03-19T17:45:39.256Z,73.98
2017-03-19T17:46:35.760Z,74.08
2017-03-19T17:47:41.849Z,73.99
2017-03-19T17:48:24.350Z,74.12
2017-03-19T17:50:35.579Z,74.19
2017-03-19T17:51:41.322Z,74.15
2017-03-19T17:52:43.000Z,73.96
2017-03-19T17:53:33.024Z,73.99
2017-03-19T17:54:40.826Z,73.88
2017-03-19T17:55:45.200Z,73.96
2017-03-19T17:56:38.363Z,74.05
2017-03-19T17:57:33.869Z,74.20
2017-03-19T17:59:51.584Z,74.00
2017-03-19T18:00:39.849Z,74.14
2017-03-19T18:02:34.852Z,74.23
2017-03-19T18:03:20.268Z,74.50
2017-03-19T18:04:35.327Z,74.51
2017-03-19T18:05:35.364Z,74.32
2017-03-19T18:06:40.106Z,74.29
2017-03-19T18:07:35.329Z,74.32
2017-03-19T18:08:33.226Z,74.39
2017-03-19T18:09:39.949Z,74.25
2017-03-19T18:10:31.821Z,74.43
2017-03-19T18:11:15.757Z,74.48
2017-03-19T18:12:35.964Z,74.57
2017-03-19T18:13:24.036Z,74.55
2017-03-19T18:14:30.708Z,74.74
2017-03-19T18:15:28.713Z,75.07
2017-03-19T18:16:23.169Z,74.97
2017-03-19T18:17:36.269Z,75.03
2017-03-19T18:18:31.010Z,75.20
2017-03-19T18:19:23.767Z,75.17
2017-03-19T18:20:31.999Z,75.23
2017-03-19T18:21:37.889Z,75.44
2017-03-19T18:22:24.251Z,75.58
2017-03-19T18:23:29.504Z,75.75
2017-03-19T18:24:36.466Z,75.78
2017-03-19T18:25:36.305Z,75.88
2017-03-19T18:26:29.721Z,75.86
2017-03-19T18:27:28.715Z,75.90
2017-03-19T18:28:35.717Z,76.02
2017-03-19T18:29:31.657Z,76.12
2017-03-19T18:30:36.413Z,76.14
2017-03-19T18:31:31.158Z,76.22
2017-03-19T18:32:23.203Z,76.10
2017-03-19T18:33:35.567Z,76.20
2017-03-19T18:34:32.630Z,76.43
2017-03-19T18:35:31.298Z,76.40
2017-03-19T18:36:32.174Z,76.61
2017-03-19T18:37:30.738Z,76.66
2017-03-19T18:38:35.609Z,76.77
2017-03-19T18:39:30.914Z,76.96
2017-03-19T18:40:33.018Z,77.01
2017-03-19T18:41:29.576Z,77.01
2017-03-19T18:42:32.607Z,77.11
2017-03-19T18:43:33.383Z,77.35
2017-03-19T18:44:32.081Z,77.38
2017-03-19T18:45:29.964Z,77.47
2017-03-19T18:46:30.809Z,77.70
2017-03-19T18:47:36.778Z,77.87
2017-03-19T18:48:35.485Z,78.15
2017-03-19T18:49:30.839Z,78.40
2017-03-19T18:50:29.184Z,78.61
2017-03-19T18:51:29.285Z,78.90
2017-03-19T18:52:24.311Z,79.22
2017-03-19T18:53:43.314Z,79.36
2017-03-19T18:54:29.446Z,79.47
2017-03-19T18:55:29.322Z,79.63
2017-03-19T18:56:28.354Z,79.70
2017-03-19T18:57:25.054Z,79.76
2017-03-19T18:58:30.821Z,79.82
2017-03-19T18:59:31.938Z,80.01
2017-03-19T19:00:36.159Z,79.97
2017-03-19T19:01:32.025Z,80.12
2017-03-19T19:02:37.156Z,80.13
2017-03-19T19:03:31.030Z,80.36
2017-03-19T19:04:31.568Z,80.36
2017-03-19T19:05:33.997Z,80.59
2017-03-19T19:06:31.596Z,80.47
2017-03-19T19:07:29.171Z,80.77
2017-03-19T19:08:41.583Z,80.87
2017-03-19T19:09:32.418Z,80.87
2017-03-19T19:11:48.801Z,81.29
2017-03-19T19:12:43.626Z,81.50
2017-03-19T19:13:30.254Z,81.51
2017-03-19T19:14:46.338Z,81.46
2017-03-19T19:15:36.154Z,81.64
2017-03-19T19:16:35.583Z,81.54
2017-03-19T19:17:44.578Z,81.81
2017-03-19T19:18:23.500Z,82.01
2017-03-19T19:19:51.552Z,82.13
2017-03-19T19:20:31.631Z,82.20
2017-03-19T19:21:34.417Z,82.12
2017-03-19T19:22:36.020Z,82.26
2017-03-19T19:23:35.504Z,82.11
2017-03-19T19:24:35.589Z,82.30
2017-03-19T19:25:36.019Z,82.34
2017-03-19T19:26:31.820Z,82.34
2017-03-19T19:27:33.026Z,82.36
2017-03-19T19:28:30.208Z,82.61
2017-03-19T19:29:25.365Z,82.73
2017-03-19T19:30:40.754Z,82.66
2017-03-19T19:31:30.509Z,82.70
2017-03-19T19:32:30.325Z,82.78
2017-03-19T19:33:23.411Z,83.00
2017-03-19T19:34:36.511Z,83.00
2017-03-19T19:35:30.841Z,83.20
2017-03-19T19:36:36.840Z,83.23
2017-03-19T19:37:44.593Z,83.19
2017-03-19T19:38:36.768Z,83.13
2017-03-19T19:39:25.034Z,83.30
2017-03-19T19:40:47.040Z,83.32
2017-03-19T19:41:29.917Z,83.46
2017-03-19T19:43:31.098Z,83.58
2017-03-19T19:44:30.705Z,83.68
2017-03-19T19:45:30.603Z,83.62
2017-03-19T19:46:30.117Z,83.73
2017-03-19T19:48:25.629Z,83.84
2017-03-19T19:49:26.088Z,83.71
2017-03-19T19:50:31.083Z,83.78
2017-03-19T19:51:29.909Z,83.62
2017-03-19T19:52:25.966Z,83.80
2017-03-19T19:55:30.811Z,84.06
2017-03-19T19:56:30.656Z,84.02
2017-03-19T19:57:31.952Z,84.06
2017-03-19T19:58:29.706Z,84.00
2017-03-19T19:59:35.455Z,83.94
2017-03-19T20:00:31.349Z,84.10
2017-03-19T20:01:25.886Z,84.25
2017-03-19T20:02:30.431Z,84.49
2017-03-19T20:03:25.520Z,84.36
2017-03-19T20:04:30.983Z,84.65
2017-03-19T20:05:30.340Z,84.47
2017-03-19T20:06:31.369Z,84.74
2017-03-19T20:07:30.583Z,84.81
2017-03-19T20:08:31.719Z,84.71
2017-03-19T20:09:36.671Z,84.82
2017-03-19T20:10:26.161Z,84.78
2017-03-19T20:11:44.685Z,84.88
2017-03-19T20:12:33.970Z,84.88
2017-03-19T20:13:33.299Z,84.82
2017-03-19T20:14:34.689Z,85.05
2017-03-19T20:15:26.217Z,85.08
2017-03-19T20:16:24.892Z,85.04
2017-03-19T20:17:36.747Z,84.86
2017-03-19T20:18:34.167Z,84.73
2017-03-19T20:20:30.509Z,85.12
2017-03-19T20:21:46.972Z,85.07
2017-03-19T20:22:35.303Z,85.02
2017-03-19T20:23:36.211Z,85.24
2017-03-19T20:24:40.207Z,85.20
2017-03-19T20:25:43.970Z,85.17
2017-03-19T20:26:30.202Z,85.31
2017-03-19T20:27:31.297Z,85.27
2017-03-19T20:28:38.789Z,85.41
2017-03-19T20:29:34.026Z,85.46
2017-03-19T20:30:31.037Z,85.34
2017-03-19T20:31:31.200Z,85.51
2017-03-19T20:32:37.085Z,85.43
2017-03-19T20:33:30.964Z,85.50
2017-03-19T20:34:35.967Z,85.45
2017-03-19T20:35:42.061Z,85.42
2017-03-19T20:36:30.642Z,85.51
2017-03-19T20:37:39.263Z,85.68
2017-03-19T20:38:40.944Z,85.85